createdAt,value
2023-01-12T00:02:18.181Z,90.48
2023-01-12T00:04:46.210Z,90.55
2023-01-12T00:07:16.040Z,90.58
2023-01-12T00:09:44.018Z,90.67
2023-01-12T00:12:12.507Z,90.76
2023-01-12T00:14:40.605Z,90.85
2023-01-12T00:17:09.214Z,90.95
2023-01-12T00:19:38.946Z,91.03
2023-01-12T00:22:13.176Z,91.12
2023-01-12T00:24:45.721Z,91.21
2023-01-12T00:27:19.656Z,91.28
2023-01-12T00:29:49.450Z,91.34
2023-01-12T00:32:20.208Z,91.37
2023-01-12T00:34:48.422Z,91.46
2023-01-12T00:37:16.264Z,91.53
2023-01-12T00:39:53.061Z,91.60
2023-01-12T00:42:47.076Z,91.62
2023-01-12T00:45:24.427Z,91.66
2023-01-12T00:47:53.780Z,91.71
2023-01-12T00:50:22.173Z,91.76
2023-01-12T00:52:49.970Z,91.80
2023-01-12T00:55:17.794Z,91.85
2023-01-12T00:57:45.900Z,91.89
2023-01-12T01:00:14.507Z,91.95
2023-01-12T01:02:42.480Z,92.00
2023-01-12T01:05:10.376Z,92.05
2023-01-12T01:07:38.378Z,92.09
2023-01-12T01:10:07.188Z,92.11
2023-01-12T01:12:35.312Z,92.14
2023-01-12T01:15:03.728Z,92.15
2023-01-12T01:17:31.727Z,92.18
2023-01-12T01:20:00.192Z,92.23
2023-01-12T01:22:28.266Z,92.24
2023-01-12T01:24:56.120Z,92.27
2023-01-12T01:27:24.017Z,92.32
2023-01-12T01:29:55.411Z,92.36
2023-01-12T01:32:23.321Z,92.36
2023-01-12T01:34:51.178Z,92.34
2023-01-12T01:37:20.084Z,92.37
2023-01-12T01:39:48.300Z,92.41
2023-01-12T01:42:28.692Z,92.43
2023-01-12T01:44:59.938Z,92.45
2023-01-12T01:47:42.796Z,92.48
2023-01-12T01:50:19.956Z,92.51
2023-01-12T01:52:57.813Z,92.53
2023-01-12T01:55:57.167Z,92.55
2023-01-12T01:58:31.780Z,92.57
2023-01-12T02:00:59.749Z,92.58
2023-01-12T02:03:29.403Z,92.59
2023-01-12T02:05:58.233Z,92.58
2023-01-12T02:08:33.872Z,92.60
2023-01-12T02:11:03.228Z,92.63
2023-01-12T02:13:50.558Z,92.65
2023-01-12T02:16:25.605Z,92.65
2023-01-12T02:19:06.118Z,92.69
2023-01-12T02:21:58.474Z,92.71
2023-01-12T02:24:58.596Z,92.75
2023-01-12T02:27:38.424Z,92.76
2023-01-12T02:30:34.174Z,92.80
2023-01-12T02:36:25.441Z,92.84
2023-01-12T02:39:15.426Z,92.87
2023-01-12T02:42:12.106Z,92.90
2023-01-12T02:44:48.891Z,92.90
2023-01-12T02:47:25.741Z,92.93
2023-01-12T02:49:59.568Z,92.93
2023-01-12T02:52:32.132Z,92.92
2023-01-12T02:55:02.043Z,92.94
2023-01-12T02:57:33.312Z,92.97
2023-01-12T03:00:03.533Z,92.98
2023-01-12T03:02:32.960Z,92.98
2023-01-12T03:05:00.852Z,93.02
2023-01-12T03:07:47.049Z,93.04
2023-01-12T03:10:20.821Z,93.07
2023-01-12T03:12:51.424Z,93.07
2023-01-12T03:15:19.812Z,93.09
2023-01-12T03:17:58.660Z,93.10
2023-01-12T03:20:32.939Z,93.14
2023-01-12T04:34:39.519Z,93.61
2023-01-12T04:37:07.417Z,93.56
2023-01-12T04:39:35.280Z,93.56
2023-01-12T04:42:03.545Z,93.58
2023-01-12T04:44:35.127Z,93.59
2023-01-12T04:47:02.915Z,93.60
2023-01-12T04:49:30.733Z,93.61
2023-01-12T04:51:59.303Z,93.64
2023-01-12T04:54:27.323Z,93.68
2023-01-12T04:56:55.256Z,93.68
2023-01-12T04:59:23.124Z,93.70
2023-01-12T05:01:51.047Z,93.71
2023-01-12T05:04:19.051Z,93.71
2023-01-12T05:06:46.990Z,93.70
2023-01-12T05:09:33.586Z,93.70
2023-01-12T05:12:01.616Z,93.70
2023-01-12T05:14:29.749Z,93.70
2023-01-12T05:16:59.607Z,93.70
2023-01-12T05:19:27.526Z,93.71
2023-01-12T05:21:55.354Z,93.72
2023-01-12T05:24:23.215Z,93.73
2023-01-12T05:26:51.092Z,93.73
2023-01-12T05:29:18.982Z,93.74
2023-01-12T05:31:46.917Z,93.75
2023-01-12T05:34:14.834Z,93.76
2023-01-12T05:36:42.611Z,93.77
2023-01-12T05:39:10.504Z,93.77
2023-01-12T05:41:58.334Z,93.78
2023-01-12T05:44:26.648Z,93.79
2023-01-12T05:46:54.587Z,93.78
2023-01-12T05:49:22.492Z,93.76
2023-01-12T05:51:50.380Z,93.76
2023-01-12T05:54:18.164Z,93.74
2023-01-12T05:56:46.630Z,93.74
2023-01-12T05:59:15.527Z,93.73
2023-01-12T06:01:44.047Z,93.71
2023-01-12T06:04:12.037Z,93.71
2023-01-12T06:06:39.946Z,93.71
2023-01-12T06:09:07.961Z,93.70
2023-01-12T06:11:54.447Z,93.71
2023-01-12T06:14:22.356Z,93.72
2023-01-12T06:16:50.283Z,93.71
2023-01-12T06:19:18.141Z,93.71
2023-01-12T06:21:46.012Z,93.68
2023-01-12T06:24:14.154Z,93.68
2023-01-12T06:26:45.131Z,93.69
2023-01-12T06:29:13.741Z,93.67
2023-01-12T06:31:41.692Z,93.66
2023-01-12T06:34:09.842Z,93.65
2023-01-12T06:36:38.811Z,93.64
2023-01-12T06:39:06.742Z,93.66
2023-01-12T06:41:53.529Z,93.64
2023-01-12T06:44:21.599Z,93.64
2023-01-12T06:46:49.426Z,93.64
2023-01-12T06:49:17.306Z,93.66
2023-01-12T06:51:47.672Z,93.67
2023-01-12T06:54:17.748Z,93.64
2023-01-12T06:56:46.750Z,93.62
2023-01-12T06:59:14.690Z,93.60
2023-01-12T07:01:42.678Z,93.55
2023-01-12T07:04:10.943Z,93.49
2023-01-12T07:06:39.065Z,93.46
2023-01-12T07:09:06.933Z,93.43
2023-01-12T07:11:34.877Z,93.40
2023-01-12T07:14:04.415Z,93.39
2023-01-12T07:16:33.562Z,93.38
2023-01-12T07:19:01.426Z,93.38
2023-01-12T07:21:29.236Z,93.37
2023-01-12T07:23:57.096Z,93.38
2023-01-12T07:26:33.915Z,93.38
2023-01-12T07:29:02.241Z,93.37
2023-01-12T07:31:30.622Z,93.37
2023-01-12T07:33:58.390Z,93.35
2023-01-12T07:36:26.358Z,93.32
2023-01-12T07:38:54.370Z,93.30
2023-01-12T07:41:41.127Z,93.27
2023-01-12T07:44:09.772Z,93.24
2023-01-12T07:46:37.769Z,93.20
2023-01-12T07:49:05.832Z,93.17
2023-01-12T07:51:33.946Z,93.14
2023-01-12T07:54:02.190Z,93.09
2023-01-12T07:56:30.147Z,93.06
2023-01-12T07:58:58.130Z,93.02
2023-01-12T08:01:26.358Z,93.01
2023-01-12T08:03:54.634Z,92.97
2023-01-12T08:06:22.527Z,92.94
2023-01-12T08:08:52.935Z,92.87
2023-01-12T08:11:21.000Z,92.82
2023-01-12T08:13:53.852Z,92.75
2023-01-12T08:16:27.711Z,92.66
2023-01-12T08:19:16.666Z,92.57
2023-01-12T08:21:50.143Z,92.41
2023-01-12T08:24:23.608Z,92.26
2023-01-12T08:26:56.643Z,92.09
2023-01-12T08:29:32.136Z,91.88
2023-01-12T08:32:04.968Z,91.67
2023-01-12T08:34:35.539Z,91.46
2023-01-12T08:37:08.125Z,91.31
2023-01-12T08:39:36.502Z,91.18
2023-01-12T08:42:04.652Z,91.12
2023-01-12T08:44:36.218Z,91.17
2023-01-12T08:47:06.476Z,91.24
2023-01-12T08:49:34.449Z,91.29
2023-01-12T08:52:02.403Z,91.30
2023-01-12T08:54:30.564Z,91.18
2023-01-12T08:56:58.537Z,91.05
2023-01-12T08:59:26.333Z,90.88
2023-01-12T09:01:54.158Z,90.51
2023-01-12T09:04:22.595Z,89.92
2023-01-12T09:06:50.553Z,88.84
2023-01-12T09:09:20.184Z,87.86
2023-01-12T09:11:49.527Z,86.69
2023-01-12T09:14:17.589Z,84.28
2023-01-12T09:16:45.558Z,84.06
2023-01-12T09:19:13.639Z,84.07
2023-01-12T09:21:42.204Z,84.13
2023-01-12T09:24:11.955Z,83.70
2023-01-12T09:26:46.058Z,83.99
2023-01-12T09:29:14.827Z,84.06
2023-01-12T09:31:45.081Z,83.68
2023-01-12T09:34:13.896Z,83.56
2023-01-12T09:36:42.439Z,83.42
2023-01-12T09:39:26.854Z,83.71
2023-01-12T09:42:17.687Z,82.71
2023-01-12T09:45:08.811Z,82.58
2023-01-12T09:48:01.301Z,82.52
2023-01-12T09:50:33.654Z,83.00
2023-01-12T09:53:12.925Z,83.99
2023-01-12T09:55:49.950Z,82.22
2023-01-12T09:58:30.059Z,81.84
2023-01-12T10:01:01.474Z,81.51
2023-01-12T10:03:38.474Z,81.02
2023-01-12T10:06:08.872Z,80.41
2023-01-12T10:08:41.625Z,79.94
2023-01-12T10:11:30.440Z,79.73
2023-01-12T10:14:01.392Z,80.59
2023-01-12T10:16:38.450Z,80.31
2023-01-12T10:19:30.736Z,80.24
2023-01-12T10:22:37.288Z,79.42
2023-01-12T10:28:37.806Z,78.87
2023-01-12T10:31:16.242Z,78.50
2023-01-12T10:34:02.853Z,78.33
2023-01-12T10:36:31.944Z,79.80
2023-01-12T10:39:03.587Z,78.84
2023-01-12T10:41:36.319Z,78.91
2023-01-12T10:44:13.821Z,79.07
2023-01-12T10:46:42.408Z,78.55
2023-01-12T10:49:20.781Z,78.43
2023-01-12T10:51:57.692Z,78.14
2023-01-12T10:54:29.254Z,77.95
2023-01-12T10:57:03.018Z,76.69
2023-01-12T10:59:34.248Z,77.15
2023-01-12T11:04:45.481Z,77.16
2023-01-12T11:07:14.664Z,77.47
2023-01-12T11:09:44.485Z,78.56
2023-01-12T11:12:24.459Z,78.34
2023-01-12T11:15:10.722Z,78.77
2023-01-12T11:17:38.672Z,77.52
2023-01-12T11:20:25.211Z,78.25
2023-01-12T11:22:56.582Z,78.08
2023-01-12T11:25:26.474Z,78.32
2023-01-12T11:28:18.843Z,78.89
2023-01-12T11:30:52.852Z,78.85
2023-01-12T11:33:25.876Z,79.07
2023-01-12T11:35:56.675Z,78.31
2023-01-12T11:38:32.072Z,78.63
2023-01-12T11:40:59.928Z,78.77
2023-01-12T11:43:49.170Z,77.64
2023-01-12T11:46:26.672Z,77.80
2023-01-12T11:49:14.829Z,77.60
2023-01-12T11:51:43.936Z,77.63
2023-01-12T11:54:16.092Z,76.71
2023-01-12T11:57:07.711Z,77.28
2023-01-12T11:59:53.864Z,78.10
2023-01-12T12:02:52.688Z,76.79
2023-01-12T12:05:45.545Z,77.13
2023-01-12T12:08:25.127Z,77.38
2023-01-12T12:10:59.298Z,77.76
2023-01-12T12:13:40.488Z,77.88
2023-01-12T12:16:26.537Z,77.55
2023-01-12T12:19:23.318Z,77.58
2023-01-12T12:22:08.070Z,77.72
2023-01-12T12:25:10.378Z,77.42
2023-01-12T12:27:44.091Z,77.19
2023-01-12T12:30:33.754Z,77.78
2023-01-12T12:33:35.202Z,78.25
2023-01-12T12:36:11.991Z,77.57
2023-01-12T12:38:44.708Z,78.24
2023-01-12T12:41:47.304Z,78.17
2023-01-12T12:44:57.174Z,78.38
2023-01-12T12:47:34.117Z,78.48
2023-01-12T12:50:04.274Z,78.33
2023-01-12T12:52:36.154Z,78.50
2023-01-12T12:55:06.682Z,78.36
2023-01-12T12:58:02.252Z,78.16
2023-01-12T13:00:42.636Z,78.28
2023-01-12T13:03:10.810Z,78.44
2023-01-12T13:05:47.565Z,77.98
2023-01-12T13:08:22.691Z,77.96
2023-01-12T13:10:55.179Z,77.36
2023-01-12T13:13:32.518Z,76.52
2023-01-12T13:16:15.760Z,76.13
2023-01-12T13:19:05.699Z,76.11
2023-01-12T13:21:42.546Z,76.02
2023-01-12T13:24:10.393Z,75.85
2023-01-12T13:26:43.272Z,75.59
2023-01-12T13:29:23.556Z,75.53
2023-01-12T13:31:56.653Z,75.76
2023-01-12T13:34:36.499Z,75.77
2023-01-12T13:37:31.504Z,75.76
2023-01-12T13:40:12.256Z,75.97
2023-01-12T13:42:58.954Z,75.67
2023-01-12T13:45:27.111Z,75.52
2023-01-12T13:47:55.115Z,75.34
2023-01-12T13:50:25.860Z,75.61
2023-01-12T13:52:58.755Z,75.86
2023-01-12T13:55:30.761Z,75.63
2023-01-12T13:58:00.223Z,75.77
2023-01-12T14:00:32.269Z,75.75
2023-01-12T14:03:01.639Z,75.76
2023-01-12T14:05:59.507Z,75.82
2023-01-12T14:08:57.827Z,75.48
2023-01-12T14:11:58.921Z,75.62
2023-01-12T14:14:54.705Z,75.76
2023-01-12T14:17:47.008Z,76.03
2023-01-12T14:20:19.542Z,76.05
2023-01-12T14:22:47.901Z,75.95
2023-01-12T14:25:26.037Z,76.13
2023-01-12T14:27:56.134Z,76.20
2023-01-12T14:30:27.381Z,76.19
2023-01-12T14:32:55.500Z,76.27
2023-01-12T14:35:25.583Z,76.35
2023-01-12T14:37:58.103Z,76.38
2023-01-12T14:40:30.820Z,76.45
2023-01-12T14:43:19.815Z,76.46
2023-01-12T14:46:14.477Z,76.74
2023-01-12T14:48:43.988Z,76.94
2023-01-12T14:51:36.372Z,77.15
2023-01-12T14:54:07.569Z,77.36
2023-01-12T14:56:48.069Z,77.54
2023-01-12T14:59:23.450Z,77.79
2023-01-12T15:02:16.922Z,78.03
2023-01-12T15:04:56.776Z,78.25
2023-01-12T15:07:37.447Z,78.40
2023-01-12T15:10:14.628Z,78.49
2023-01-12T15:12:44.192Z,78.63
2023-01-12T15:15:16.069Z,78.87
2023-01-12T15:18:04.318Z,78.99
2023-01-12T15:20:55.931Z,79.12
2023-01-12T15:23:52.414Z,79.19
2023-01-12T15:26:21.687Z,79.32
2023-01-12T15:28:49.688Z,79.63
2023-01-12T15:31:28.169Z,79.64
2023-01-12T15:33:57.132Z,80.14
2023-01-12T15:36:25.524Z,80.66
2023-01-12T15:38:53.847Z,80.57
2023-01-12T15:41:47.850Z,80.96
2023-01-12T15:44:18.662Z,81.08
2023-01-12T15:46:47.211Z,81.24
2023-01-12T15:49:15.614Z,81.32
2023-01-12T15:51:49.138Z,81.43
2023-01-12T15:54:21.387Z,81.73
2023-01-12T15:56:49.288Z,81.80
2023-01-12T15:59:17.155Z,82.19
2023-01-12T16:01:48.321Z,82.49
2023-01-12T16:04:42.292Z,82.38
2023-01-12T16:07:10.864Z,82.79
2023-01-12T16:09:38.745Z,82.91
2023-01-12T16:12:07.946Z,82.97
2023-01-12T16:14:36.119Z,83.06
2023-01-12T16:17:04.369Z,83.17
2023-01-12T16:19:32.315Z,83.16
2023-01-12T16:22:00.170Z,83.12
2023-01-12T16:24:30.955Z,83.12
2023-01-12T16:26:59.004Z,83.07
2023-01-12T16:29:26.848Z,83.25
2023-01-12T16:31:54.746Z,83.38
2023-01-12T16:34:23.624Z,83.38
2023-01-12T16:36:51.758Z,83.49
2023-01-12T16:39:19.712Z,83.43
2023-01-12T16:41:47.870Z,83.48
2023-01-12T16:44:15.943Z,83.64
2023-01-12T16:46:44.057Z,83.44
2023-01-12T16:49:12.080Z,83.48
2023-01-12T16:51:39.959Z,83.55
2023-01-12T16:54:08.359Z,83.85
2023-01-12T16:56:36.598Z,83.95
2023-01-12T16:59:04.618Z,84.28
2023-01-12T17:01:33.390Z,84.17
2023-01-12T17:04:01.643Z,84.15
2023-01-12T17:06:30.370Z,84.32
2023-01-12T17:09:02.175Z,84.51
2023-01-12T17:11:30.893Z,84.77
2023-01-12T17:13:59.504Z,84.76
2023-01-12T17:16:31.031Z,84.86
2023-01-12T17:18:59.153Z,84.77
2023-01-12T17:21:27.267Z,85.07
2023-01-12T17:23:55.623Z,85.03
2023-01-12T17:26:24.057Z,85.15
2023-01-12T17:28:55.242Z,85.06
2023-01-12T17:31:23.767Z,84.90
2023-01-12T17:33:52.030Z,84.89
2023-01-12T17:36:19.991Z,84.94
2023-01-12T17:38:47.935Z,85.11
2023-01-12T17:41:35.696Z,85.20
2023-01-12T17:44:05.456Z,85.26
2023-01-12T17:46:34.033Z,85.21
2023-01-12T17:49:04.822Z,85.23
2023-01-12T17:51:34.435Z,85.17
2023-01-12T17:54:04.561Z,85.07
2023-01-12T17:56:35.711Z,85.03
2023-01-12T17:59:05.416Z,85.05
2023-01-12T18:01:36.142Z,85.08
2023-01-12T18:04:04.811Z,85.05
2023-01-12T18:06:33.015Z,84.97
2023-01-12T18:09:01.129Z,84.85
2023-01-12T18:11:31.263Z,84.72
2023-01-12T18:14:00.771Z,84.61
2023-01-12T18:16:29.470Z,84.50
2023-01-12T18:18:58.008Z,84.48
2023-01-12T18:21:28.473Z,84.50
2023-01-12T18:23:57.243Z,84.47
2023-01-12T18:26:30.725Z,84.46
2023-01-12T18:28:58.944Z,84.47
2023-01-12T18:31:31.432Z,84.49
2023-01-12T18:34:03.785Z,84.47
2023-01-12T18:36:37.889Z,84.48
2023-01-12T18:39:08.099Z,84.50
2023-01-12T18:41:55.690Z,84.49
2023-01-12T18:44:24.405Z,84.40
2023-01-12T18:47:11.205Z,84.36
2023-01-12T18:49:40.037Z,84.33
2023-01-12T18:52:29.887Z,84.31
2023-01-12T18:54:58.997Z,84.26
2023-01-12T18:57:30.297Z,84.14
2023-01-12T19:04:57.712Z,83.99
2023-01-12T19:07:39.827Z,84.01
2023-01-12T19:10:08.540Z,83.98
2023-01-12T19:12:36.454Z,83.90
2023-01-12T19:15:23.543Z,83.83
2023-01-12T19:17:51.340Z,83.70
2023-01-12T19:20:21.214Z,83.67
2023-01-12T19:23:08.045Z,83.66
2023-01-12T19:26:14.845Z,83.67
2023-01-12T19:28:42.937Z,83.73
2023-01-12T19:31:12.543Z,83.76
2023-01-12T19:33:42.849Z,83.72
2023-01-12T19:36:16.845Z,83.62
2023-01-12T19:38:50.640Z,83.57
2023-01-12T19:41:38.634Z,83.63
2023-01-12T19:44:06.860Z,83.62
2023-01-12T19:46:34.734Z,83.59
2023-01-12T19:49:02.787Z,83.54
2023-01-12T19:51:30.685Z,83.44
2023-01-12T19:53:58.678Z,83.41
2023-01-12T19:56:27.027Z,83.42
2023-01-12T19:58:54.911Z,83.46
2023-01-12T20:01:23.890Z,83.57
2023-01-12T20:03:51.881Z,83.65
2023-01-12T20:06:19.799Z,83.58
2023-01-12T20:08:47.652Z,83.57
2023-01-12T20:11:16.430Z,83.33
2023-01-12T20:13:44.619Z,83.42
2023-01-12T20:16:13.364Z,83.41
2023-01-12T20:18:43.646Z,83.46
2023-01-12T20:21:12.974Z,83.45
2023-01-12T20:23:40.897Z,83.39
2023-01-12T20:26:09.277Z,83.34
2023-01-12T20:28:37.339Z,83.00
2023-01-12T20:31:10.358Z,82.87
2023-01-12T20:33:38.503Z,82.73
2023-01-12T20:36:11.174Z,82.65
2023-01-12T20:38:40.780Z,82.59
2023-01-12T20:41:10.952Z,82.73
2023-01-12T20:43:38.989Z,82.53
2023-01-12T20:46:11.878Z,82.45
2023-01-12T20:48:44.761Z,82.42
2023-01-12T20:51:15.929Z,82.35
2023-01-12T20:53:44.304Z,82.23
2023-01-12T20:56:12.466Z,82.29
2023-01-12T20:58:40.563Z,82.14
2023-01-12T21:01:13.891Z,82.17
2023-01-12T21:03:43.193Z,82.23
2023-01-12T21:06:16.551Z,82.14
2023-01-12T21:08:46.666Z,82.10
2023-01-12T21:11:17.482Z,82.09
2023-01-12T21:13:45.953Z,82.17
2023-01-12T21:16:18.281Z,81.92
2023-01-12T21:18:48.133Z,81.85
2023-01-12T21:21:16.719Z,81.93
2023-01-12T21:23:44.696Z,81.82
2023-01-12T21:26:12.701Z,81.90
2023-01-12T21:28:40.792Z,81.87
2023-01-12T21:31:12.389Z,81.87
2023-01-12T21:33:40.388Z,81.54
2023-01-12T21:36:10.865Z,81.43
2023-01-12T21:41:59.079Z,81.39
2023-01-12T21:44:27.850Z,81.35
2023-01-12T21:46:55.701Z,81.39
2023-01-12T21:49:24.877Z,81.49
2023-01-12T21:51:52.885Z,81.45
2023-01-12T21:54:20.831Z,81.39
2023-01-12T21:56:48.900Z,81.43
2023-01-12T21:59:16.780Z,81.44
2023-01-12T22:01:45.639Z,81.42
2023-01-12T22:04:13.552Z,81.25
2023-01-12T22:06:41.840Z,81.36
2023-01-12T22:09:09.895Z,81.39
2023-01-12T22:11:37.856Z,81.37
2023-01-12T22:14:05.698Z,81.38
2023-01-12T22:16:33.683Z,81.30
2023-01-12T22:19:01.615Z,81.33
2023-01-12T22:21:29.669Z,81.29
2023-01-12T22:23:57.468Z,81.33
2023-01-12T22:26:28.293Z,81.38
2023-01-12T22:28:56.357Z,81.41
2023-01-12T22:31:25.652Z,81.50
2023-01-12T22:34:02.870Z,81.53
2023-01-12T22:36:34.628Z,81.57
2023-01-12T22:39:03.004Z,81.65
2023-01-12T22:41:31.086Z,81.63
2023-01-12T22:43:59.592Z,81.68
2023-01-12T22:46:28.311Z,81.67
2023-01-12T22:48:59.334Z,81.73
2023-01-12T22:51:29.401Z,81.75
2023-01-12T22:53:58.094Z,81.78
2023-01-12T22:56:26.410Z,81.79
2023-01-12T22:58:56.429Z,81.75
2023-01-12T23:01:25.605Z,81.77
2023-01-12T23:03:58.357Z,81.78
2023-01-12T23:06:27.118Z,81.82
2023-01-12T23:08:54.996Z,81.82
2023-01-12T23:11:26.318Z,81.83
2023-01-12T23:13:55.066Z,81.86
2023-01-12T23:16:23.612Z,81.85
2023-01-12T23:18:55.399Z,81.87
2023-01-12T23:21:27.956Z,81.83
2023-01-12T23:23:58.135Z,81.82
2023-01-12T23:26:29.035Z,81.82
2023-01-12T23:29:00.232Z,81.58
2023-01-12T23:31:32.110Z,81.57
2023-01-12T23:34:01.407Z,81.46
2023-01-12T23:36:30.641Z,81.58
2023-01-12T23:39:04.175Z,81.59
2023-01-12T23:41:34.985Z,81.61
2023-01-12T23:44:05.885Z,81.59
2023-01-12T23:46:37.201Z,81.64
2023-01-12T23:49:05.717Z,81.62
2023-01-12T23:51:33.690Z,81.64
2023-01-12T23:54:02.032Z,81.60
2023-01-12T23:56:34.792Z,81.62
2023-01-12T23:59:02.729Z,81.66
